Latest Weather Observations for Sydney Olympic Park

IDN60901

Issued at 11:51 pm EST Friday 18 September 2020 (issued every 10 minutes, with the page automatically refreshed every 10 minutes)

About weather observations | Map of Sydney area stations | Latest observations for Sydney area | Other Formats
Station Details ID: 066212 Name: SYDNEY OLYMPIC PARK AWS (ARCHERY CENTRE) Lat: -33.83 Lon: 151.07 Height: 4.0 m
Data from the previous 72 hours. | See also: Recent months at Sydney Olympic Park
Date/Time
EST
Temp
°C
App
Temp
°C
Dew
Point
°C
Rel
Hum
%
Delta-T
°C
Wind Press
QNH
hPa
Press
MSL
hPa
Rain since
9am
mm
Dir  Spd
km/h
Gust
km/h
Spd
kts
Gust
kts
18/11:30pm 16.0 17.9 15.8 99 0.1 CALM 0 0 0 0 - - 1.0
18/11:20pm 16.0 17.9 15.8 99 0.1 CALM 0 0 0 0 - - 1.0
18/11:07pm 16.0 17.9 15.8 99 0.1 CALM 0 0 0 0 - - 1.0
18/11:00pm 16.0 17.9 15.8 99 0.1 CALM 0 0 0 0 - - 1.0
18/10:30pm 15.9 17.8 15.7 99 0.1 CALM 0 0 0 0 - - 0.8
18/10:00pm 16.0 17.9 15.8 99 0.1 CALM 0 0 0 0 - - 0.4
18/09:30pm 16.0 17.9 15.8 99 0.1 CALM 0 0 0 0 - - 0.0
18/09:00pm 16.0 17.5 15.8 99 0.1 SSE 2 7 1 4 - - 0.0
18/08:55pm 16.0 17.2 15.8 99 0.1 SSE 4 9 2 5 - - 0.0
18/08:30pm 16.1 18.1 15.9 99 0.1 CALM 0 0 0 0 - - 0.0
18/08:00pm 16.1 16.9 15.9 99 0.1 SSE 6 9 3 5 - - 0.0
18/07:30pm 16.1 16.9 15.9 99 0.1 SSE 6 9 3 5 - - 0.0
18/07:08pm 16.0 17.5 15.8 99 0.1 SSE 2 7 1 4 - - 0.0
18/07:00pm 16.0 16.8 15.8 99 0.1 SSE 6 7 3 4 - - 0.0
18/06:48pm 16.0 17.4 15.4 96 0.3 SSE 2 7 1 4 - - 0.0
18/06:30pm 16.4 18.1 15.1 92 0.8 CALM 0 0 0 0 - - 0.0
18/06:00pm 16.7 18.1 14.5 87 1.3 CALM 0 0 0 0 - - 0.0
18/05:30pm 16.9 17.2 14.4 85 1.4 SSE 6 7 3 4 - - 0.0
18/05:00pm 17.1 17.3 14.2 83 1.7 SE 6 11 3 6 - - 0.0
18/04:30pm 17.3 17.4 13.8 80 2.0 SE 6 7 3 4 - - 0.0
18/04:00pm 17.5 17.3 13.6 78 2.2 ESE 7 11 4 6 - - 0.0
18/03:30pm 17.6 17.4 13.7 78 2.2 SSE 7 9 4 5 - - 0.0
18/03:00pm 17.5 17.2 13.4 77 2.3 SE 7 13 4 7 - - 0.0
18/02:30pm 17.6 17.4 13.7 78 2.2 SE 7 11 4 6 - - 0.0
18/02:00pm 17.4 16.8 13.5 78 2.2 SE 9 13 5 7 - - 0.0
18/01:30pm 16.8 16.8 14.1 84 1.5 SE 7 11 4 6 - - 0.0
18/01:00pm 16.9 17.6 14.5 86 1.4 SE 4 11 2 6 - - 0.0
18/12:30pm 16.8 16.3 13.7 82 1.8 SSE 9 13 5 7 - - 0.0
18/12:00pm 16.8 16.2 13.5 81 1.9 SSE 9 13 5 7 - - 0.0
18/11:30am 16.9 16.3 13.4 80 2.0 SSE 9 13 5 7 - - 0.0
18/11:00am 17.0 16.3 13.1 78 2.2 SE 9 15 5 8 - - 0.0
18/10:30am 16.9 16.5 13.0 78 2.2 SE 7 13 4 7 - - 0.0
18/10:00am 17.1 16.4 13.2 78 2.2 ESE 9 13 5 7 - - 0.0
18/09:30am 16.8 17.3 12.9 78 2.2 SSW 2 7 1 4 - - 0.0
18/09:00am 16.9 17.5 13.0 78 2.2 S 2 9 1 5 - - 0.0
18/08:30am 16.1 15.8 12.7 80 1.9 S 6 9 3 5 - - 0.0
18/08:00am 15.7 15.9 13.0 84 1.5 SW 4 9 2 5 - - 0.0
18/07:30am 15.1 15.7 13.0 87 1.2 SSW 2 11 1 6 - - 0.0
18/07:00am 14.7 14.8 12.7 88 1.1 WSW 4 11 2 6 - - 0.0
18/06:30am 14.2 14.6 12.4 89 1.0 SW 2 6 1 3 - - 0.0
18/06:00am 13.9 14.1 11.9 88 1.1 SW 2 6 1 3 - - 0.0
18/05:30am 14.0 13.8 11.7 86 1.2 WSW 4 7 2 4 - - 0.0
18/05:00am 14.3 13.3 11.1 81 1.7 SW 7 13 4 7 - - 0.0
18/04:30am 14.9 14.2 11.5 80 1.8 SW 6 11 3 6 - - 0.0
18/04:00am 15.0 14.3 11.4 79 1.9 WSW 6 9 3 5 - - 0.0
18/03:30am 15.2 14.3 11.4 78 2.0 WSW 7 11 4 6 - - 0.0
18/03:00am 15.3 14.9 11.1 76 2.2 WSW 4 7 2 4 - - 0.0
18/02:30am 15.6 14.8 11.2 75 2.4 WSW 6 9 3 5 - - 0.0
18/02:00am 15.6 14.8 11.0 74 2.5 WSW 6 9 3 5 - - 0.0
18/01:30am 15.8 14.7 10.8 72 2.7 WSW 7 9 4 5 - - 0.0
18/01:00am 16.1 14.8 11.1 72 2.7 SSW 9 13 5 7 - - 0.0
18/12:30am 16.4 14.2 10.9 70 2.9 S 13 24 7 13 - - 0.0
18/12:00am 16.3 13.7 10.8 70 2.9 S 15 24 8 13 - - 0.0
 
Date/Time
EST
Temp
°C
App
Temp
°C
Dew
Point
°C
Rel
Hum
%
Delta-T
°C
Wind Press
QNH
hPa
Press
MSL
hPa
Rain since
9am
mm
Dir  Spd
km/h
Gust
km/h
Spd
kts
Gust
kts
17/11:30pm 16.3 14.1 10.8 70 2.9 S 13 20 7 11 - - 0.0
17/11:00pm 16.3 14.4 10.6 69 3.0 S 11 20 6 11 - - 0.0
17/10:30pm 16.4 14.2 10.7 69 3.0 S 13 26 7 14 - - 0.0
17/10:00pm 16.6 13.6 10.7 68 3.1 S 17 28 9 15 - - 0.0
17/09:30pm 16.6 13.2 10.5 67 3.2 S 19 33 10 18 - - 0.0
17/09:00pm 16.6 14.5 11.1 70 3.0 S 13 22 7 12 - - 0.0
17/08:30pm 16.2 13.0 11.2 72 2.7 S 19 32 10 17 - - 0.0
17/08:00pm 16.3 14.0 11.7 74 2.5 SSE 15 22 8 12 - - 0.0
17/07:30pm 16.8 14.5 11.9 73 2.7 S 15 30 8 16 - - 0.0
17/07:00pm 17.0 14.4 11.9 72 2.8 S 17 28 9 15 - - 0.0
17/06:30pm 17.2 13.4 12.3 73 2.7 SSE 24 50 13 27 - - 0.0
17/06:00pm 17.2 13.3 12.1 72 2.8 SSE 24 43 13 23 - - 0.0
17/05:30pm 17.7 15.0 13.4 76 2.4 SSE 20 39 11 21 - - 0.0
17/05:07pm 18.3 14.2 13.8 75 2.6 SSE 28 54 15 29 - - 0.0
17/05:00pm 18.6 15.6 13.7 73 2.8 SSE 22 43 12 23 - - 0.0
17/04:30pm 19.9 14.9 13.4 66 3.7 SSE 32 56 17 30 - - 0.0
17/04:28pm 20.0 15.7 13.2 65 3.9 SSE 28 56 15 30 - - 0.0
17/04:26pm 20.3 16.8 13.3 64 4.0 SSE 24 50 13 27 - - 0.0
17/04:10pm 25.3 23.4 11.8 43 7.7 W 13 37 7 20 - - 0.0
17/04:00pm 30.5 30.8 14.6 38 9.7 NW 6 19 3 10 - - 0.0
17/03:30pm 30.3 29.4 11.3 31 11.0 WNW 7 19 4 10 - - 0.0
17/03:00pm 31.3 30.6 13.1 33 10.9 NW 9 20 5 11 - - 0.0
17/02:30pm 31.2 29.9 12.5 31 11.1 NW 11 17 6 9 - - 0.0
17/02:00pm 31.5 30.2 13.7 33 10.7 NW 13 19 7 10 - - 0.0
17/01:30pm 31.1 29.8 13.8 34 10.4 NW 13 24 7 13 - - 0.0
17/01:00pm 30.7 28.7 12.6 33 10.7 NW 15 28 8 15 - - 0.0
17/12:30pm 30.1 28.0 11.1 31 10.9 NNW 13 26 7 14 - - 0.0
17/12:00pm 29.8 28.1 13.5 36 9.7 NW 15 28 8 15 - - 0.0
17/11:30am 28.6 27.3 13.7 40 8.9 NW 13 22 7 12 - - 0.0
17/11:00am 28.6 26.5 13.7 40 8.9 NW 17 26 9 14 - - 0.0
17/10:30am 27.8 26.3 13.0 40 8.7 NW 13 20 7 11 - - 0.0
17/10:00am 27.1 26.0 13.1 42 8.2 NW 11 19 6 10 - - 0.0
17/09:30am 24.6 26.0 15.5 57 5.5 NNE 2 9 1 5 - - 0.0
17/09:00am 21.9 23.8 15.7 68 3.7 CALM 0 0 0 0 - - 0.0
17/08:30am 19.6 21.2 14.8 74 2.8 CALM 0 0 0 0 - - 0.0
17/08:00am 16.8 18.0 13.9 83 1.6 CALM 0 0 0 0 - - 0.0
17/07:30am 15.0 16.6 14.8 99 0.1 CALM 0 0 0 0 - - 0.0
17/07:00am 13.7 14.8 13.5 99 0.1 CALM 0 0 0 0 - - 0.0
17/06:30am 12.2 12.8 12.0 99 0.1 CALM 0 0 0 0 - - 0.0
17/06:00am 11.7 12.2 11.5 99 0.1 CALM 0 0 0 0 - - 0.0
17/05:30am 11.5 11.9 11.3 99 0.1 CALM 0 0 0 0 - - 0.0
17/05:00am 11.7 12.2 11.5 99 0.1 CALM 0 0 0 0 - - 0.0
17/04:30am 11.7 12.2 11.5 99 0.1 CALM 0 0 0 0 - - 0.0
17/04:00am 11.9 12.4 11.7 99 0.1 CALM 0 0 0 0 - - 0.0
17/03:30am 12.3 13.0 12.1 99 0.1 CALM 0 0 0 0 - - 0.0
17/03:24am 12.4 13.1 12.2 99 0.1 CALM 0 0 0 0 - - 0.0
17/03:04am 12.2 12.8 12.0 99 0.1 CALM 0 0 0 0 - - 0.0
17/03:00am 12.3 13.0 12.1 99 0.1 CALM 0 0 0 0 - - 0.0
17/02:30am 12.3 13.0 12.1 99 0.1 CALM 0 0 0 0 - - 0.0
17/02:00am 12.4 13.1 12.1 98 0.2 CALM 0 0 0 0 - - 0.0
17/01:30am 12.8 13.5 12.3 97 0.3 CALM 0 0 0 0 - - 0.0
17/01:00am 13.1 13.9 12.5 96 0.3 CALM 0 0 0 0 - - 0.0
17/12:30am 13.3 14.1 12.5 95 0.4 CALM 0 7 0 4 - - 0.0
17/12:00am 13.7 14.6 12.9 95 0.4 CALM 0 6 0 3 - - 0.0
 
Date/Time
EST
Temp
°C
App
Temp
°C
Dew
Point
°C
Rel
Hum
%
Delta-T
°C
Wind Press
QNH
hPa
Press
MSL
hPa
Rain since
9am
mm
Dir  Spd
km/h
Gust
km/h
Spd
kts
Gust
kts
16/11:30pm 14.1 15.0 13.0 93 0.6 CALM 0 0 0 0 - - 0.0
16/11:00pm 14.6 15.2 13.0 90 0.9 NNW 2 7 1 4 - - 0.0
16/10:30pm 14.5 15.5 13.2 92 0.7 CALM 0 0 0 0 - - 0.0
16/10:00pm 15.0 15.9 13.0 88 1.1 CALM 0 0 0 0 - - 0.0
16/09:30pm 15.3 16.3 13.2 87 1.2 CALM 0 0 0 0 - - 0.0
16/09:00pm 16.2 17.4 13.9 86 1.3 CALM 0 0 0 0 - - 0.0
16/08:30pm 16.6 16.6 14.2 86 1.4 NNW 7 9 4 5 - - 0.0
16/08:00pm 17.2 17.7 15.0 87 1.3 NNW 6 9 3 5 - - 0.0
16/07:30pm 17.7 18.9 14.8 83 1.7 NW 2 7 1 4 - - 0.0
16/07:00pm 18.5 20.1 15.0 80 2.0 CALM 0 0 0 0 - - 0.0
16/06:30pm 19.6 20.4 14.8 74 2.8 SSE 4 9 2 5 - - 0.0
16/06:00pm 20.8 22.0 14.9 69 3.5 SE 2 7 1 4 - - 0.0
16/05:30pm 22.7 23.0 15.0 61 4.6 SSE 7 13 4 7 - - 0.0
16/05:00pm 24.4 24.4 15.1 56 5.6 SE 9 13 5 7 - - 0.0
16/04:30pm 25.3 25.7 14.7 51 6.3 SSE 6 13 3 7 - - 0.0
16/04:00pm 26.6 25.5 11.9 40 8.4 NW 9 20 5 11 - - 0.0
16/03:30pm 27.0 24.6 11.5 38 8.9 NNW 15 26 8 14 - - 0.0
16/03:00pm 29.1 27.9 12.9 37 9.6 NNW 11 19 6 10 - - 0.0
16/02:30pm 28.6 26.6 11.6 34 9.8 NNW 13 20 7 11 - - 0.0
16/02:00pm 28.2 26.0 13.3 40 8.8 NNW 17 30 9 16 - - 0.0
16/01:30pm 28.0 26.1 13.1 39 8.8 NNW 15 28 8 15 - - 0.0
16/01:00pm 27.8 24.9 12.2 38 9.0 NW 19 30 10 16 - - 0.0
16/12:30pm 27.7 26.5 14.0 43 8.2 NW 13 26 7 14 - - 0.0
16/12:00pm 27.1 25.6 13.1 42 8.2 NNW 13 24 7 13 - - 0.0
16/11:30am 26.0 25.1 14.8 50 6.7 NNW 13 24 7 13 - - 0.0
16/11:00am 24.5 25.1 15.4 57 5.5 E 6 9 3 5 - - 0.0
16/10:30am 23.4 24.1 15.7 62 4.6 WNW 6 11 3 6 - - 0.0
16/10:00am 21.5 23.1 16.0 71 3.3 ENE 2 6 1 3 - - 0.0
16/09:30am 18.9 19.2 14.4 75 2.6 ESE 6 9 3 5 - - 0.0
16/09:00am 18.9 20.2 15.2 79 2.2 WNW 2 7 1 4 - - 0.0
16/08:30am 16.8 18.6 15.5 92 0.8 CALM 0 7 0 4 - - 0.0
16/08:00am 15.7 17.2 15.7 100 0.0 NNW 2 7 1 4 - - 0.0
16/07:30am 13.9 15.1 13.9 100 0.0 CALM 0 7 0 4 - - 0.0
16/07:00am 12.6 13.0 12.6 100 0.0 NE 2 7 1 4 - - 0.0
16/06:30am 11.3 11.7 11.1 99 0.1 CALM 0 0 0 0 - - 0.0
16/06:00am 10.8 11.0 10.6 99 0.1 CALM 0 0 0 0 - - 0.0
16/05:30am 11.3 11.7 11.1 99 0.1 CALM 0 0 0 0 - - 0.0
16/05:00am 11.0 11.3 10.8 99 0.1 CALM 0 0 0 0 - - 0.0
16/04:30am 11.5 11.9 11.3 99 0.1 CALM 0 0 0 0 - - 0.0
16/04:00am 11.3 11.7 11.1 99 0.1 CALM 0 0 0 0 - - 0.0
16/03:30am 11.8 12.3 11.6 99 0.1 CALM 0 0 0 0 - - 0.0
16/03:00am 12.0 12.6 11.8 99 0.1 CALM 0 0 0 0 - - 0.0
16/02:30am 12.6 13.4 12.4 99 0.1 CALM 0 0 0 0 - - 0.0
16/02:00am 12.7 13.5 12.5 99 0.1 CALM 0 0 0 0 - - 0.0
16/01:30am 12.9 13.7 12.7 99 0.1 CALM 0 0 0 0 - - 0.0
16/01:00am 13.2 14.1 13.0 99 0.1 CALM 0 0 0 0 - - 0.0
16/12:30am 13.5 14.4 13.0 97 0.3 CALM 0 0 0 0 - - 0.0
16/12:00am 14.0 15.1 13.4 96 0.3 CALM 0 0 0 0 - - 0.0

Latest Capital City Observations: Canberra | Sydney | Melbourne | Brisbane | Adelaide | Perth | Hobart | Darwin

Other formats

Comma delimited format used in spreadsheet applications
http://www.bom.gov.au/fwo/IDN60901/IDN60901.95765.axf

JavaScript Object Notation format (JSON) in row-major order
http://www.bom.gov.au/fwo/IDN60901/IDN60901.95765.json

Data quality

Most of these data are generated automatically and are frequently updated. Quality checks on data are not normally performed. It is possible for incorrect values to appear. Refer to information at About Latest Weather Observations and please check the disclaimer before using these data.